Time;durP1;ratioP1;P1;durP2;ratioP2;P2;SDS_P1;SDS_P2;PMS_P1;PMS_P2;Temp;Humidity;BMP_temperature;BMP_pressure;BME280_temperature;BME280_humidity;BME280_pressure;Samples;Min_cycle;Max_cycle;Signal;HPM_P1;HPM_P2
2023/10/12 00:00:24;;;;;;;3.00;1.60;;;;;;;15.38;51.76;101375.80;105658;1262;67458;-82
2023/10/12 00:02:48;;;;;;;3.10;1.50;;;;;;;15.38;51.60;101372.90;105628;1265;71074;-82
2023/10/12 00:05:19;;;;;;;3.40;1.70;;;;;;;15.37;51.92;101368.44;105795;1261;60602;-82
2023/10/12 00:07:49;;;;;;;2.50;1.20;;;;;;;15.39;51.96;101366.27;106459;1262;60533;-82
2023/10/12 00:12:50;;;;;;;5.00;1.40;;;;;;;15.39;52.49;101357.52;105707;1261;68453;-82
2023/10/12 00:15:25;;;;;;;5.10;1.70;;;;;;;15.38;52.79;101359.01;105674;1262;72671;-82
2023/10/12 00:17:58;;;;;;;2.30;1.30;;;;;;;15.39;53.10;101355.30;105633;1267;60557;-82
2023/10/12 00:23:09;;;;;;;2.40;1.50;;;;;;;15.44;53.43;101357.02;106170;1260;72624;-82
2023/10/12 00:25:54;;;;;;;2.80;1.40;;;;;;;15.46;53.36;101355.95;105736;1265;67161;-82
2023/10/12 00:28:23;;;;;;;4.70;1.20;;;;;;;15.48;53.15;101357.80;105769;1262;72812;-82
2023/10/12 00:30:57;;;;;;;2.00;1.50;;;;;;;15.45;53.36;101353.05;105606;1265;60570;-82
2023/10/12 00:33:26;;;;;;;3.80;1.40;;;;;;;15.44;53.39;101351.45;105706;1261;60523;-82
2023/10/12 00:35:59;;;;;;;4.20;1.40;;;;;;;15.42;53.89;101347.51;106408;1262;72674;-82
2023/10/12 00:38:30;;;;;;;2.80;1.30;;;;;;;15.43;54.18;101343.83;105867;1261;68912;-82
2023/10/12 00:41:03;;;;;;;4.70;1.50;;;;;;;15.45;54.27;101340.54;105609;1262;71413;-82
2023/10/12 00:43:38;;;;;;;1.90;1.20;;;;;;;15.50;54.21;101337.25;105588;1265;60575;-82
2023/10/12 00:46:32;;;;;;;2.40;1.40;;;;;;;15.52;54.35;101336.23;105717;1262;60335;-82
2023/10/12 00:51:51;;;;;;;2.10;1.30;;;;;;;15.60;54.18;101339.46;105684;1262;67134;-82
2023/10/12 00:57:09;;;;;;;2.90;1.70;;;;;;;15.58;54.38;101335.46;105590;1262;60522;-82
2023/10/12 00:59:38;;;;;;;1.50;1.10;;;;;;;15.58;54.79;101340.95;105655;1265;60435;-82
2023/10/12 01:02:09;;;;;;;4.80;1.30;;;;;;;15.60;54.58;101339.52;106729;1260;73874;-82
2023/10/12 01:04:41;;;;;;;4.10;1.20;;;;;;;15.58;54.51;101332.27;105736;1262;68753;-82
2023/10/12 01:07:11;;;;;;;1.40;1.20;;;;;;;15.56;54.71;101335.64;105587;1262;72540;-82
2023/10/12 01:09:39;;;;;;;2.70;1.50;;;;;;;15.53;54.87;101326.76;105641;1262;61019;-82
2023/10/12 01:12:13;;;;;;;4.50;1.30;;;;;;;15.56;54.91;101326.04;105934;1263;60375;-82
2023/10/12 01:14:43;;;;;;;3.50;1.20;;;;;;;15.55;55.18;101324.36;105809;1262;73910;-82
2023/10/12 01:17:24;;;;;;;4.30;1.50;;;;;;;15.50;55.47;101318.09;105793;1262;67225;-82
2023/10/12 01:19:52;;;;;;;4.00;1.60;;;;;;;15.46;56.01;101311.78;105590;1265;71414;-82
2023/10/12 01:22:25;;;;;;;5.60;1.70;;;;;;;15.47;56.47;101308.92;105590;1262;60580;-82
2023/10/12 01:27:25;;;;;;;5.70;1.40;;;;;;;15.47;56.78;101307.58;106385;1262;72579;-81
2023/10/12 01:29:53;;;;;;;2.30;1.70;;;;;;;15.47;56.91;101307.69;106006;1262;67229;-82
2023/10/12 01:32:24;;;;;;;3.70;1.60;;;;;;;15.47;57.07;101301.96;105506;1262;72687;-82
2023/10/12 01:34:53;;;;;;;4.80;2.20;;;;;;;15.47;57.37;101298.66;105649;1265;60455;-81
2023/10/12 01:37:27;;;;;;;3.60;1.50;;;;;;;15.46;57.81;101288.77;105644;1261;60948;-82
2023/10/12 01:42:35;;;;;;;3.50;1.50;;;;;;;15.52;57.65;101279.44;106429;1262;68463;-82
2023/10/12 01:45:05;;;;;;;4.00;1.70;;;;;;;15.50;57.83;101277.20;105795;1262;72781;-81
2023/10/12 01:47:37;;;;;;;5.40;1.80;;;;;;;15.51;58.01;101271.14;105670;1261;62525;-81
2023/10/12 01:50:06;;;;;;;4.10;1.40;;;;;;;15.52;58.34;101271.03;105737;1265;60465;-82
2023/10/12 01:52:35;;;;;;;3.50;1.40;;;;;;;15.54;58.42;101267.63;105568;1262;74404;-81
2023/10/12 01:55:15;;;;;;;1.80;1.20;;;;;;;15.57;58.66;101264.39;106846;1262;67299;-82
2023/10/12 01:57:52;;;;;;;3.60;1.80;;;;;;;15.59;58.72;101261.95;105648;1263;72726;-82
2023/10/12 02:01:24;;;;;;;4.00;1.30;;;;;;;15.65;58.83;101256.48;105516;1262;61669;-81
2023/10/12 02:05:59;;;;;;;4.00;1.60;;;;;;;15.73;58.56;101251.78;105714;1263;73838;-82
2023/10/12 02:08:39;;;;;;;2.70;1.50;;;;;;;15.72;58.73;101246.96;105746;1262;67121;-82
2023/10/12 02:11:11;;;;;;;4.20;1.70;;;;;;;15.73;58.85;101246.40;105768;1265;70115;-82
2023/10/12 02:13:41;;;;;;;2.80;1.60;;;;;;;15.75;58.43;101252.14;105568;1265;61685;-82
2023/10/12 02:16:12;;;;;;;5.70;1.80;;;;;;;15.79;58.49;101244.94;105644;1262;60801;-82
2023/10/12 02:18:42;;;;;;;3.20;1.80;;;;;;;15.81;58.73;101242.14;105610;1266;72662;-82
2023/10/12 02:21:11;;;;;;;3.90;1.80;;;;;;;15.88;58.38;101244.77;106428;1267;68382;-82
2023/10/12 02:23:54;;;;;;;3.70;1.60;;;;;;;15.92;57.97;101245.26;105776;1265;71431;-82
2023/10/12 02:31:54;;;;;;;3.70;1.80;;;;;;;15.97;57.92;101238.74;105623;1267;72677;-83
2023/10/12 02:34:28;;;;;;;4.40;2.40;;;;;;;16.00;57.71;101241.67;106287;1262;68341;-82
2023/10/12 02:39:41;;;;;;;2.10;1.30;;;;;;;15.94;58.00;101241.71;105641;1265;60660;-82
2023/10/12 02:42:17;;;;;;;3.50;1.60;;;;;;;15.97;57.78;101239.58;105749;1262;60410;-82
2023/10/12 02:47:29;;;;;;;2.30;1.60;;;;;;;15.95;58.00;101226.54;106290;1263;66287;-82
2023/10/12 02:52:43;;;;;;;5.70;1.80;;;;;;;15.95;57.99;101223.89;105584;1263;61697;-82
2023/10/12 02:57:56;;;;;;;3.40;1.50;;;;;;;15.94;58.08;101221.83;105668;1262;73870;-82
2023/10/12 03:00:44;;;;;;;4.80;1.40;;;;;;;15.89;58.22;101224.40;106037;1262;68405;-82
2023/10/12 03:03:36;;;;;;;3.10;1.30;;;;;;;15.85;58.43;101216.52;105950;1263;70466;-83
2023/10/12 03:06:08;;;;;;;4.90;2.00;;;;;;;15.83;58.33;101214.40;105590;1262;61685;-82
2023/10/12 03:11:25;;;;;;;2.60;1.50;;;;;;;15.77;58.64;101211.23;106281;1262;73833;-81
2023/10/12 03:14:13;;;;;;;3.00;1.60;;;;;;;15.73;58.84;101210.73;106075;1262;67094;-82
2023/10/12 03:16:42;;;;;;;4.10;2.20;;;;;;;15.68;59.22;101204.70;105553;1262;72718;-81
2023/10/12 03:19:35;;;;;;;3.90;2.00;;;;;;;15.67;59.36;101197.55;105682;1262;60571;-82
2023/10/12 03:22:23;;;;;;;3.00;1.60;;;;;;;15.63;59.62;101190.50;105771;1262;60495;-82
2023/10/12 03:24:51;;;;;;;8.20;1.50;;;;;;;15.64;59.75;101191.36;105664;1262;74152;-82
2023/10/12 03:27:22;;;;;;;5.30;1.60;;;;;;;15.64;60.19;101184.16;106335;1262;68705;-82
2023/10/12 03:30:07;;;;;;;2.40;1.40;;;;;;;15.63;60.27;101185.10;105634;1262;75043;-82
2023/10/12 03:32:35;;;;;;;4.40;1.60;;;;;;;15.63;60.56;101185.55;105704;1263;61686;-82
2023/10/12 03:35:05;;;;;;;2.90;1.50;;;;;;;15.69;60.60;101182.77;105548;1266;60026;-82
2023/10/12 03:37:45;;;;;;;3.30;1.50;;;;;;;15.72;60.66;101184.58;105631;1263;72622;-82
2023/10/12 03:43:08;;;;;;;4.20;1.60;;;;;;;15.73;60.65;101185.61;105642;1262;73150;-82
2023/10/12 03:45:49;;;;;;;1.80;1.30;;;;;;;15.74;60.62;101186.08;105610;1262;61656;-82
2023/10/12 03:48:48;;;;;;;3.20;1.60;;;;;;;15.73;60.68;101185.61;105913;1265;60533;-82
2023/10/12 03:54:04;;;;;;;4.00;1.60;;;;;;;15.68;61.09;101187.52;106226;1263;67293;-82
2023/10/12 03:56:36;;;;;;;4.40;1.70;;;;;;;15.70;61.02;101188.61;105651;1263;72834;-82
2023/10/12 03:59:06;;;;;;;2.80;1.70;;;;;;;15.68;61.22;101185.88;105741;1265;60792;-82
2023/10/12 04:01:40;;;;;;;5.60;2.00;;;;;;;15.64;61.82;101183.77;105653;1262;60570;-82
2023/10/12 04:04:09;;;;;;;3.50;1.60;;;;;;;15.65;62.16;101180.29;106104;1262;72963;-82
2023/10/12 04:09:31;;;;;;;4.00;1.50;;;;;;;15.77;61.89;101180.86;105558;1267;71529;-80
2023/10/12 04:14:59;;;;;;;3.60;1.90;;;;;;;15.85;61.77;101188.52;105597;1262;61291;-81
2023/10/12 04:23:15;;;;;;;6.30;1.50;;;;;;;15.89;61.99;101192.05;105741;1267;72782;-82
2023/10/12 04:28:23;;;;;;;5.20;1.50;;;;;;;16.07;61.99;101198.02;105680;1266;60503;-85
2023/10/12 04:33:24;;;;;;;4.20;1.60;;;;;;;16.24;61.34;101190.55;105661;1262;67237;-81
2023/10/12 04:36:01;;;;;;;2.80;2.10;;;;;;;16.30;61.32;101187.86;105590;1262;72491;-82
2023/10/12 04:38:46;;;;;;;6.00;2.00;;;;;;;16.37;61.19;101188.41;105693;1267;61238;-82
2023/10/12 04:43:54;;;;;;;4.90;2.30;;;;;;;16.50;60.64;101190.42;106800;1262;72433;-81
2023/10/12 04:49:29;;;;;;;2.70;1.40;;;;;;;16.69;59.86;101191.64;105780;1268;71592;-82
2023/10/12 04:52:03;;;;;;;3.70;1.60;;;;;;;16.79;59.51;101189.83;105774;1263;60443;-84
2023/10/12 04:54:31;;;;;;;11.10;2.30;;;;;;;16.89;58.91;101187.56;105792;1263;60581;-81
2023/10/12 04:59:43;;;;;;;6.60;1.70;;;;;;;17.07;58.37;101183.73;105536;1262;67172;-90
2023/10/12 05:05:14;;;;;;;4.20;1.70;;;;;;;17.25;57.41;101180.19;105549;1266;60510;-81
2023/10/12 05:07:54;;;;;;;3.00;1.60;;;;;;;17.32;56.92;101178.17;106450;1260;60548;-89
2023/10/12 05:10:46;;;;;;;2.80;1.80;;;;;;;17.35;56.59;101179.34;105630;1265;73948;-81
2023/10/12 05:13:19;;;;;;;2.80;1.50;;;;;;;17.41;56.31;101182.20;105533;1265;67115;-88
2023/10/12 05:15:54;;;;;;;5.30;1.80;;;;;;;17.47;56.02;101180.58;105548;1266;72757;-81
2023/10/12 05:18:23;;;;;;;4.90;1.70;;;;;;;17.48;55.90;101180.99;105891;1267;61081;-81
2023/10/12 05:20:51;;;;;;;3.60;2.00;;;;;;;17.50;55.82;101184.61;105904;1264;60576;-82
2023/10/12 05:23:19;;;;;;;10.40;2.20;;;;;;;17.52;55.77;101181.80;105578;1263;72612;-90
2023/10/12 05:28:27;;;;;;;2.80;1.20;;;;;;;17.60;55.58;101186.93;105598;1262;71369;-89
2023/10/12 05:36:12;;;;;;;4.50;1.70;;;;;;;17.73;54.97;101183.45;105442;1268;73893;-82
2023/10/12 05:38:51;;;;;;;3.90;2.00;;;;;;;17.75;54.94;101184.96;105595;1265;67115;-90
2023/10/12 05:41:34;;;;;;;4.10;1.60;;;;;;;17.76;54.93;101181.66;105554;1266;71432;-91
2023/10/12 05:44:04;;;;;;;3.60;1.60;;;;;;;17.77;54.87;101185.75;106423;1265;60527;-81
2023/10/12 05:46:34;;;;;;;5.10;1.80;;;;;;;17.74;54.95;101185.54;105547;1262;60581;-82
2023/10/12 05:49:11;;;;;;;5.20;1.80;;;;;;;17.69;55.30;101180.55;105586;1262;72659;-90
2023/10/12 05:51:43;;;;;;;6.00;2.00;;;;;;;17.67;55.50;101182.64;105827;1266;67188;-90
2023/10/12 05:54:15;;;;;;;5.00;1.90;;;;;;;17.64;55.83;101178.62;105857;1265;71519;-88
2023/10/12 05:56:43;;;;;;;3.80;2.00;;;;;;;17.60;56.24;101185.37;106285;1266;60593;-82
2023/10/12 05:59:18;;;;;;;4.40;1.80;;;;;;;17.64;56.42;101184.38;105792;1268;60471;-85
2023/10/12 06:01:46;;;;;;;3.00;1.80;;;;;;;17.65;56.57;101186.00;106000;1265;73910;-84
2023/10/12 06:04:20;;;;;;;3.70;1.80;;;;;;;17.66;56.58;101184.98;106453;1262;68490;-82
2023/10/12 06:06:51;;;;;;;5.40;2.10;;;;;;;17.64;56.90;101178.78;106302;1266;75708;-83
2023/10/12 06:09:21;;;;;;;3.20;1.70;;;;;;;17.65;56.91;101180.26;105789;1265;61663;-82
2023/10/12 06:11:51;;;;;;;6.10;2.20;;;;;;;17.68;57.19;101176.83;105673;1262;60557;-83
2023/10/12 06:14:22;;;;;;;6.10;1.80;;;;;;;17.75;56.94;101177.66;105743;1265;71661;-83
2023/10/12 06:16:55;;;;;;;3.00;1.60;;;;;;;17.84;56.64;101185.45;105602;1268;68434;-84
2023/10/12 06:19:28;;;;;;;5.10;2.10;;;;;;;17.83;56.88;101180.88;106476;1260;70143;-81
2023/10/12 06:21:59;;;;;;;5.80;2.20;;;;;;;17.92;56.69;101181.73;105621;1261;60905;-81
2023/10/12 06:24:34;;;;;;;3.00;1.90;;;;;;;17.90;57.03;101181.05;105761;1265;60046;-81
2023/10/12 06:27:22;;;;;;;4.90;1.50;;;;;;;18.05;57.34;101179.78;105868;1260;72861;-83
2023/10/12 06:29:52;;;;;;;9.10;2.30;;;;;;;18.31;56.97;101175.66;105780;1266;67590;-82
2023/10/12 06:32:40;;;;;;;4.40;2.20;;;;;;;18.56;56.19;101177.36;105850;1261;71107;-82
2023/10/12 06:45:55;;;;;;;14.30;2.10;;;;;;;19.93;50.62;101167.82;105883;1260;71758;-83
2023/10/12 06:51:03;;;;;;;5.40;2.10;;;;;;;20.42;48.27;101156.11;106303;1263;61033;-82
2023/10/12 06:53:35;;;;;;;3.80;1.70;;;;;;;20.54;47.64;101155.77;105775;1274;76397;-83
2023/10/12 07:02:27;;;;;;;6.90;1.70;;;;;;;20.69;46.32;101150.38;106979;1260;60558;-83
2023/10/12 07:04:30;;;;;;;4.50;1.60;;;;;;;20.68;46.15;101149.29;105613;1261;60489;-82
2023/10/12 07:07:07;;;;;;;6.20;2.00;;;;;;;20.69;45.91;101146.55;105635;1262;73811;-83
2023/10/12 07:09:46;;;;;;;2.70;2.00;;;;;;;20.67;46.12;101144.73;105935;1266;68621;-82
2023/10/12 07:12:17;;;;;;;3.80;1.90;;;;;;;20.85;46.21;101139.00;105793;1265;72496;-81
2023/10/12 07:14:55;;;;;;;3.50;1.80;;;;;;;21.00;45.57;101128.59;105781;1265;60559;-81
2023/10/12 07:17:31;;;;;;;15.90;2.80;;;;;;;21.18;45.11;101125.90;107050;1265;60025;-81
2023/10/12 07:20:01;;;;;;;9.40;2.40;;;;;;;21.38;44.58;101124.45;105813;1263;73960;-82
2023/10/12 07:22:34;;;;;;;3.90;1.70;;;;;;;21.53;44.07;101123.92;105826;1264;68918;-81
2023/10/12 07:25:04;;;;;;;5.10;2.20;;;;;;;21.67;43.91;101121.13;105896;1263;73062;-81
2023/10/12 07:27:48;;;;;;;3.30;2.00;;;;;;;21.80;43.51;101112.73;105665;1267;60467;-81
2023/10/12 07:30:36;;;;;;;5.20;1.80;;;;;;;21.99;43.11;101117.39;106171;1263;60582;-81
2023/10/12 07:33:04;;;;;;;4.40;1.70;;;;;;;22.10;42.72;101111.67;105636;1265;73824;-82
2023/10/12 07:35:36;;;;;;;7.80;1.70;;;;;;;22.27;42.42;101114.51;105964;1264;67760;-81
2023/10/12 07:38:25;;;;;;;13.20;2.40;;;;;;;22.41;41.78;101107.90;105769;1265;71099;-82
2023/10/12 07:41:00;;;;;;;4.30;2.00;;;;;;;22.50;41.20;101101.30;105650;1267;60475;-82
2023/10/12 07:43:31;;;;;;;4.10;1.70;;;;;;;22.56;41.19;101100.13;106326;1264;60422;-82
2023/10/12 07:46:12;;;;;;;5.70;1.70;;;;;;;22.64;41.04;101101.60;105959;1261;73921;-81
2023/10/12 07:48:44;;;;;;;8.50;2.10;;;;;;;22.80;40.84;101095.38;105819;1264;68386;-82
2023/10/12 07:51:18;;;;;;;4.30;2.00;;;;;;;22.98;40.46;101098.79;105673;1269;71699;-82
2023/10/12 07:54:42;;;;;;;2.20;1.50;;;;;;;23.09;40.40;101104.83;106174;1260;60220;-81
2023/10/12 07:56:34;;;;;;;3.30;1.70;;;;;;;23.27;40.19;101102.28;105773;1263;60485;-82
2023/10/12 07:59:06;;;;;;;4.80;1.60;;;;;;;23.38;40.12;101099.60;105744;1267;73934;-82
2023/10/12 08:04:08;;;;;;;3.50;1.70;;;;;;;23.47;39.46;101097.26;105892;1261;72725;-82
2023/10/12 08:06:42;;;;;;;3.30;1.70;;;;;;;23.50;39.46;101092.63;106498;1264;60605;-81
2023/10/12 08:11:53;;;;;;;7.70;1.90;;;;;;;23.74;39.01;101078.22;105759;1261;72607;-82
2023/10/12 08:19:45;;;;;;;5.20;2.00;;;;;;;23.89;38.45;101079.55;106167;1260;60569;-82
2023/10/12 08:22:25;;;;;;;9.60;2.20;;;;;;;23.95;38.41;101073.96;105818;1265;60541;-82
2023/10/12 08:24:58;;;;;;;10.40;2.40;;;;;;;24.06;38.17;101071.08;105837;1261;73889;-82
2023/10/12 08:27:27;;;;;;;7.70;2.00;;;;;;;24.05;38.17;101074.33;105947;1260;66746;-83
2023/10/12 08:32:29;;;;;;;9.70;1.90;;;;;;;23.99;38.08;101070.24;106275;1261;60571;-81
2023/10/12 08:37:36;;;;;;;7.60;2.00;;;;;;;24.02;37.98;101067.39;105754;1265;76416;-80
2023/10/12 08:45:07;;;;;;;8.80;2.30;;;;;;;24.39;37.30;101048.29;105863;1261;60496;-81
2023/10/12 08:52:55;;;;;;;4.00;1.90;;;;;;;24.61;36.62;101047.52;105838;1263;67579;-82
2023/10/12 08:55:24;;;;;;;5.60;1.60;;;;;;;24.69;36.50;101041.10;105714;1263;71476;-82
2023/10/12 08:58:38;;;;;;;6.30;2.00;;;;;;;24.72;36.59;101041.70;105732;1261;60489;-82
2023/10/12 09:01:10;;;;;;;4.90;1.80;;;;;;;24.72;36.23;101034.61;106512;1260;60697;-82
2023/10/12 09:03:44;;;;;;;5.80;2.00;;;;;;;24.75;36.40;101043.95;105884;1261;72547;-82
2023/10/12 09:06:53;;;;;;;5.10;2.10;;;;;;;24.85;36.32;101036.94;105833;1259;68486;-82
2023/10/12 09:12:11;;;;;;;5.50;1.80;;;;;;;25.15;35.76;101031.81;105743;1260;60514;-82
2023/10/12 09:14:43;;;;;;;3.50;2.20;;;;;;;25.22;35.89;101027.05;106335;1260;60480;-82
2023/10/12 09:17:26;;;;;;;4.90;1.70;;;;;;;25.30;35.60;101023.95;105721;1260;67732;-82
2023/10/12 09:20:26;;;;;;;3.50;1.80;;;;;;;25.44;35.37;101015.05;105909;1261;70709;-82
2023/10/12 09:22:47;;;;;;;2.80;1.50;;;;;;;25.60;34.80;101007.46;105821;1261;73246;-83
2023/10/12 09:25:49;;;;;;;7.10;1.50;;;;;;;25.60;34.54;101007.23;106556;1261;60578;-84
2023/10/12 09:28:04;;;;;;;3.60;1.70;;;;;;;25.57;34.44;101003.48;105802;1263;60379;-82
2023/10/12 09:30:35;;;;;;;5.20;1.70;;;;;;;25.55;34.45;100997.55;105737;1264;68491;-82
2023/10/12 09:33:26;;;;;;;3.80;1.80;;;;;;;25.62;34.41;100985.44;105823;1260;60460;-83
2023/10/12 09:36:00;;;;;;;4.50;2.00;;;;;;;25.66;34.25;100980.73;105830;1263;65809;-82
2023/10/12 09:38:38;;;;;;;3.70;1.60;;;;;;;25.75;34.24;100976.10;106673;1259;60301;-83
2023/10/12 09:41:08;;;;;;;5.00;1.60;;;;;;;25.81;33.97;100975.41;105857;1264;60502;-83
2023/10/12 09:43:40;;;;;;;6.70;1.50;;;;;;;25.85;33.53;100972.55;105606;1267;66877;-83
2023/10/12 09:46:09;;;;;;;4.60;1.80;;;;;;;25.84;33.52;100966.94;105757;1261;60557;-83
2023/10/12 09:48:40;;;;;;;7.70;1.70;;;;;;;25.89;33.64;100960.64;105656;1268;63866;-83
2023/10/12 09:51:20;;;;;;;6.30;1.60;;;;;;;25.98;33.85;100951.77;106310;1258;60566;-83
2023/10/12 09:53:57;;;;;;;5.00;1.60;;;;;;;26.06;34.00;100945.35;105845;1263;60400;-84
2023/10/12 09:56:33;;;;;;;5.10;2.00;;;;;;;26.20;33.84;100937.67;105714;1261;64998;-84
2023/10/12 09:59:18;;;;;;;8.00;1.80;;;;;;;26.35;33.47;100931.77;105857;1261;60801;-84
2023/10/12 10:01:49;;;;;;;3.20;1.60;;;;;;;26.47;33.20;100931.08;105713;1261;63732;-84
2023/10/12 10:09:57;;;;;;;3.10;1.50;;;;;;;26.68;32.84;100924.03;105722;1264;63741;-83
2023/10/12 10:12:27;;;;;;;5.60;2.00;;;;;;;26.84;32.77;100919.06;105758;1260;63323;-83
2023/10/12 10:15:14;;;;;;;4.10;1.70;;;;;;;27.02;32.11;100919.21;105855;1259;63811;-83
2023/10/12 10:17:47;;;;;;;5.90;2.00;;;;;;;27.04;31.89;100915.88;106157;1260;60552;-83
2023/10/12 10:22:58;;;;;;;4.30;1.50;;;;;;;27.08;31.74;100915.23;105899;1261;65022;-83
2023/10/12 10:25:34;;;;;;;2.30;1.70;;;;;;;27.09;31.66;100913.23;105940;1264;60420;-83
2023/10/12 10:28:07;;;;;;;6.50;2.00;;;;;;;27.19;31.89;100904.97;105856;1264;73667;-83
2023/10/12 10:30:42;;;;;;;4.70;1.80;;;;;;;27.32;31.92;100900.48;106489;1260;62094;-83
2023/10/12 10:33:20;;;;;;;6.60;1.80;;;;;;;27.45;31.66;100895.81;105882;1260;60319;-83
2023/10/12 10:36:10;;;;;;;5.30;2.10;;;;;;;27.51;31.50;100896.84;105929;1261;64985;-82
2023/10/12 10:41:23;;;;;;;10.00;2.50;;;;;;;27.72;31.24;100891.12;105787;1261;62498;-84
2023/10/12 10:43:52;;;;;;;5.70;1.90;;;;;;;27.80;30.69;100885.67;106543;1261;60536;-84
2023/10/12 10:46:26;;;;;;;4.50;1.80;;;;;;;27.83;30.61;100887.26;105829;1262;60371;-83
2023/10/12 10:48:56;;;;;;;6.30;1.70;;;;;;;27.89;30.68;100888.43;105776;1262;65478;-84
2023/10/12 10:51:47;;;;;;;6.50;2.20;;;;;;;27.71;30.50;100885.42;105779;1259;60444;-82
2023/10/12 10:54:18;;;;;;;2.50;1.70;;;;;;;27.61;30.66;100884.59;105766;1265;62613;-83
2023/10/12 10:56:50;;;;;;;3.50;1.70;;;;;;;27.58;30.66;100877.02;106327;1260;60560;-83
2023/10/12 10:59:18;;;;;;;4.50;1.80;;;;;;;27.59;30.70;100875.67;106065;1260;60474;-82
2023/10/12 11:01:49;;;;;;;4.30;1.80;;;;;;;27.56;30.45;100874.60;106002;1263;66029;-83
2023/10/12 11:04:41;;;;;;;6.90;2.00;;;;;;;27.51;30.53;100873.52;105839;1260;62007;-84
2023/10/12 11:07:18;;;;;;;6.40;1.90;;;;;;;27.47;30.69;100866.81;105836;1260;64828;-83
2023/10/12 11:12:23;;;;;;;5.20;1.60;;;;;;;27.49;30.91;100860.81;105944;1260;59146;-83
2023/10/12 11:15:01;;;;;;;4.90;1.70;;;;;;;27.55;30.75;100859.19;106016;1260;66851;-83
2023/10/12 11:17:30;;;;;;;4.10;1.90;;;;;;;27.65;30.81;100853.60;105780;1264;60716;-83
2023/10/12 11:19:58;;;;;;;6.00;1.40;;;;;;;27.73;30.65;100849.73;105878;1263;65917;-82
2023/10/12 11:22:26;;;;;;;4.40;1.70;;;;;;;27.77;30.18;100850.35;106398;1259;60577;-82
2023/10/12 11:24:54;;;;;;;2.30;1.60;;;;;;;27.78;30.26;100848.19;105907;1260;60553;-83
2023/10/12 11:27:33;;;;;;;3.20;1.70;;;;;;;27.77;30.09;100841.19;105755;1264;65803;-83
2023/10/12 11:30:06;;;;;;;5.80;1.70;;;;;;;27.72;30.13;100840.84;105892;1259;61910;-82
2023/10/12 11:32:53;;;;;;;3.30;1.30;;;;;;;27.70;30.29;100840.41;105782;1259;65786;-82
2023/10/12 11:35:41;;;;;;;3.90;1.80;;;;;;;27.71;30.25;100839.94;106675;1264;216090;-82
2023/10/12 11:38:20;;;;;;;4.50;1.30;;;;;;;27.69;30.35;100829.80;105758;1264;59350;-82
2023/10/12 11:40:55;;;;;;;5.30;1.70;;;;;;;27.73;30.26;100823.18;105782;1261;66933;-82
2023/10/12 11:43:29;;;;;;;4.80;1.70;;;;;;;27.80;30.32;100825.58;105783;1262;60481;-82
2023/10/12 11:46:01;;;;;;;2.40;1.80;;;;;;;27.86;30.24;100828.30;105821;1264;63744;-82
2023/10/12 11:48:30;;;;;;;8.60;1.50;;;;;;;27.91;30.19;100820.80;106414;1261;60474;-82
2023/10/12 11:51:04;;;;;;;7.30;2.10;;;;;;;27.87;30.18;100815.48;105910;1260;60584;-82
2023/10/12 11:53:32;;;;;;;5.80;2.20;;;;;;;27.78;30.25;100816.35;105716;1262;64989;-82
2023/10/12 11:56:11;;;;;;;2.60;1.50;;;;;;;27.74;30.23;100815.90;105898;1259;60874;-82
2023/10/12 11:58:40;;;;;;;11.60;2.10;;;;;;;27.79;30.36;100811.05;105932;1259;65923;-82
2023/10/12 12:01:14;;;;;;;5.80;2.40;;;;;;;27.80;30.06;100805.05;106213;1264;60565;-81
2023/10/12 12:03:45;;;;;;;6.90;2.00;;;;;;;27.78;30.23;100797.65;105708;1263;60355;-84
2023/10/12 14:43:55;;;;;;;7.70;3.50;;;;;;;25.93;32.08;100654.54;105719;1265;60506;-82
2023/10/12 14:46:23;;;;;;;8.90;3.10;;;;;;;25.84;32.22;100650.95;105664;1262;67448;-82
2023/10/12 14:48:51;;;;;;;8.40;3.00;;;;;;;25.76;32.47;100643.64;105843;1259;63185;-82
2023/10/12 14:51:29;;;;;;;6.60;3.30;;;;;;;25.72;32.49;100644.79;105804;1259;67100;-82
2023/10/12 14:53:57;;;;;;;6.70;2.50;;;;;;;25.70;32.65;100646.59;106551;1262;62187;-83
2023/10/12 14:56:29;;;;;;;3.90;2.30;;;;;;;25.63;32.63;100650.00;105838;1260;60435;-82
2023/10/12 14:58:57;;;;;;;5.70;2.40;;;;;;;25.54;32.64;100650.03;105804;1259;73853;-81
2023/10/12 15:01:28;;;;;;;7.70;2.80;;;;;;;25.43;32.95;100655.84;106031;1259;68524;-82
2023/10/12 15:03:57;;;;;;;5.50;2.30;;;;;;;25.37;33.05;100652.34;106106;1259;71809;-82
2023/10/12 15:06:30;;;;;;;8.00;2.80;;;;;;;25.28;33.07;100652.58;105894;1264;60499;-83
2023/10/12 15:08:59;;;;;;;6.20;2.40;;;;;;;25.18;33.50;100661.68;105749;1259;62474;-82
2023/10/12 15:11:26;;;;;;;6.40;2.40;;;;;;;25.16;33.55;100662.91;105774;1260;72618;-82
2023/10/12 15:13:54;;;;;;;8.40;2.50;;;;;;;25.09;33.43;100663.34;105762;1260;67350;-83
2023/10/12 15:16:25;;;;;;;7.10;2.30;;;;;;;25.04;33.56;100665.23;106570;1259;71387;-82
2023/10/12 15:18:54;;;;;;;6.20;1.90;;;;;;;24.95;33.66;100669.63;105748;1262;60563;-81
2023/10/12 15:21:21;;;;;;;7.50;2.00;;;;;;;24.89;33.81;100666.52;105919;1263;60449;-81
2023/10/12 15:23:59;;;;;;;6.30;2.00;;;;;;;24.80;33.89;100660.44;105835;1259;72681;-84
2023/10/12 15:26:27;;;;;;;6.90;2.10;;;;;;;24.70;34.01;100657.30;105782;1259;68352;-84
2023/10/12 15:28:54;;;;;;;6.50;2.10;;;;;;;24.68;34.09;100655.58;105821;1260;70818;-81
2023/10/12 15:31:26;;;;;;;7.10;2.10;;;;;;;24.60;34.17;100659.33;106373;1259;60540;-82
2023/10/12 15:33:56;;;;;;;6.10;2.60;;;;;;;24.57;34.29;100674.59;105848;1259;60380;-82
2023/10/12 15:36:24;;;;;;;6.10;2.20;;;;;;;24.53;34.48;100687.14;105752;1260;73058;-82
2023/10/12 15:38:52;;;;;;;5.40;2.10;;;;;;;24.60;34.56;100689.48;105793;1260;69279;-82
2023/10/12 15:41:21;;;;;;;3.70;2.90;;;;;;;24.52;34.52;100692.38;105757;1259;72833;-82
2023/10/12 15:43:51;;;;;;;6.00;2.20;;;;;;;24.44;34.48;100686.78;106597;1259;60579;-82
2023/10/12 15:46:24;;;;;;;3.00;1.90;;;;;;;24.36;34.72;100685.01;105809;1259;61001;-82
2023/10/12 15:48:52;;;;;;;3.60;1.90;;;;;;;24.30;34.86;100684.16;105731;1259;72961;-82
2023/10/12 15:51:19;;;;;;;5.60;2.10;;;;;;;24.27;35.06;100683.77;105820;1262;67117;-82
2023/10/12 15:53:49;;;;;;;5.00;2.10;;;;;;;24.20;35.24;100682.36;105778;1264;72791;-82
2023/10/12 15:56:17;;;;;;;6.40;2.70;;;;;;;24.13;34.97;100678.46;105680;1262;60492;-82
2023/10/12 15:58:48;;;;;;;4.80;1.90;;;;;;;24.08;35.40;100680.41;107215;1259;60432;-82
2023/10/12 16:01:20;;;;;;;8.60;2.50;;;;;;;24.10;35.45;100683.81;105719;1262;73809;-82
2023/10/12 16:03:48;;;;;;;8.60;2.30;;;;;;;24.03;35.35;100680.73;105957;1260;69021;-83
2023/10/12 16:06:16;;;;;;;7.20;2.30;;;;;;;23.98;35.62;100682.52;105869;1259;75091;-83
2023/10/12 16:08:44;;;;;;;6.50;2.50;;;;;;;23.97;35.51;100680.36;106032;1259;61958;-84
2023/10/12 16:11:16;;;;;;;4.40;1.90;;;;;;;23.96;35.65;100676.10;105779;1265;61336;-84
2023/10/12 16:13:45;;;;;;;;;;;;;;;23.82;35.88;100671.89;106604;1259;72607;-84
2023/10/12 16:16:14;;;;;;;4.90;2.10;;;;;;;23.73;35.89;100671.10;105921;1259;68483;-84
2023/10/12 16:18:42;;;;;;;6.90;2.10;;;;;;;23.69;36.05;100675.07;105988;1259;72692;-84
2023/10/12 16:21:12;;;;;;;5.30;2.30;;;;;;;23.76;35.88;100662.98;105946;1259;62375;-84
2023/10/12 16:23:40;;;;;;;7.40;1.90;;;;;;;23.76;36.10;100656.83;106772;1259;62380;-84
2023/10/12 16:26:09;;;;;;;7.40;2.30;;;;;;;23.74;36.05;100654.54;106299;1261;74901;-84
2023/10/12 16:28:40;;;;;;;5.80;1.70;;;;;;;23.74;36.12;100659.81;106187;1259;69817;-83
2023/10/12 16:31:11;;;;;;;6.00;2.40;;;;;;;23.71;36.04;100665.95;105929;1259;73730;-84
2023/10/12 16:33:39;;;;;;;5.40;2.00;;;;;;;23.64;36.13;100665.06;105911;1259;60694;-85
2023/10/12 16:36:08;;;;;;;3.20;1.90;;;;;;;23.62;36.34;100660.55;105837;1259;60832;-84
2023/10/12 16:38:36;;;;;;;5.10;1.80;;;;;;;23.61;36.25;100657.59;107152;1259;76504;-83
2023/10/12 16:41:07;;;;;;;3.10;1.80;;;;;;;23.60;36.37;100658.93;105841;1262;69990;-83
2023/10/12 16:43:36;;;;;;;7.50;2.20;;;;;;;23.62;36.19;100660.86;106054;1259;75029;-84